createdAt,value
2023-03-29T00:01:35.662Z,99642.38
2023-03-29T00:04:02.635Z,99658.31
2023-03-29T00:06:29.756Z,99651.75
2023-03-29T00:08:56.186Z,99656.19
2023-03-29T00:11:22.668Z,99634.47
2023-03-29T00:13:49.977Z,99657.31
2023-03-29T00:16:16.595Z,99658.44
2023-03-29T00:18:44.065Z,99657.31
2023-03-29T00:21:11.141Z,99660.53
2023-03-29T00:23:37.822Z,99662.66
2023-03-29T00:26:07.199Z,99659.84
2023-03-29T00:28:34.778Z,99651.47
2023-03-29T00:31:13.754Z,99650.94
2023-03-29T00:33:41.015Z,99653.03
2023-03-29T00:36:08.589Z,99658.34
2023-03-29T00:38:35.021Z,99646.34
2023-03-29T00:41:02.200Z,99642.56
2023-03-29T00:43:28.840Z,99639.25
2023-03-29T00:45:55.362Z,99637.84
2023-03-29T00:48:26.363Z,99632.53
2023-03-29T00:51:01.167Z,99622.66
2023-03-29T00:53:35.658Z,99621.56
2023-03-29T00:56:08.112Z,99632.44
2023-03-29T00:58:42.547Z,99633.25
2023-03-29T01:01:14.610Z,99630.59
2023-03-29T01:03:50.819Z,99621.38
2023-03-29T01:06:20.431Z,99622.09
2023-03-29T01:09:08.377Z,99619.16
2023-03-29T01:11:47.939Z,99586.75
2023-03-29T01:14:29.556Z,99561.09
2023-03-29T01:16:56.077Z,99553.50
2023-03-29T01:19:27.494Z,99534.16
2023-03-29T01:22:21.131Z,99539.78
2023-03-29T01:24:59.313Z,99553.63
2023-03-29T01:27:36.953Z,99562.03
2023-03-29T01:30:16.745Z,99553.50
2023-03-29T01:33:13.420Z,99541.09
2023-03-29T01:35:48.626Z,99546.41
2023-03-29T01:38:39.650Z,99545.06
2023-03-29T01:41:06.139Z,99563.00
2023-03-29T01:43:49.388Z,99559.09
2023-03-29T01:46:30.440Z,99551.84
2023-03-29T01:49:06.604Z,99555.91
2023-03-29T01:51:41.764Z,99562.84
2023-03-29T01:54:25.792Z,99552.41
2023-03-29T01:56:53.654Z,99546.53
2023-03-29T01:59:23.376Z,99535.78
2023-03-29T02:01:54.755Z,99528.88
2023-03-29T02:04:29.775Z,99526.09
2023-03-29T02:06:59.272Z,99531.22
2023-03-29T02:09:26.514Z,99518.00
2023-03-29T02:11:54.147Z,99505.72
2023-03-29T02:14:20.595Z,99494.16
2023-03-29T02:16:47.123Z,99477.69
2023-03-29T02:19:13.749Z,99498.75
2023-03-29T02:21:50.447Z,99484.81
2023-03-29T02:24:19.420Z,99473.81
2023-03-29T02:26:46.418Z,99478.63
2023-03-29T02:29:13.167Z,99474.28
2023-03-29T02:32:13.139Z,99477.94
2023-03-29T02:34:54.034Z,99479.28
2023-03-29T02:37:23.283Z,99487.66
2023-03-29T02:39:51.356Z,99484.47
2023-03-29T02:42:19.429Z,99483.66
2023-03-29T02:44:49.890Z,99488.00
2023-03-29T02:47:22.440Z,99499.53
2023-03-29T02:49:49.091Z,99496.75
2023-03-29T02:52:21.485Z,99490.94
2023-03-29T02:54:50.390Z,99486.06
2023-03-29T02:57:17.329Z,99477.84
2023-03-29T02:59:44.246Z,99484.16
2023-03-29T03:02:11.812Z,99475.38
2023-03-29T03:04:38.308Z,99470.53
2023-03-29T03:07:05.243Z,99469.69
2023-03-29T03:09:31.817Z,99473.75
2023-03-29T03:11:58.238Z,99467.22
2023-03-29T03:14:24.798Z,99468.50
2023-03-29T03:16:51.468Z,99457.38
2023-03-29T03:19:17.898Z,99451.50
2023-03-29T03:21:44.265Z,99456.78
2023-03-29T03:24:10.544Z,99448.44
2023-03-29T03:26:37.042Z,99445.63
2023-03-29T03:29:03.454Z,99450.94
2023-03-29T03:31:30.072Z,99447.44
2023-03-29T03:33:56.561Z,99460.56
2023-03-29T03:36:23.069Z,99442.28
2023-03-29T03:38:49.859Z,99441.28
2023-03-29T03:41:16.276Z,99447.56
2023-03-29T03:43:42.673Z,99443.09
2023-03-29T03:46:09.146Z,99451.47
2023-03-29T03:48:35.944Z,99441.00
2023-03-29T03:51:02.645Z,99436.69
2023-03-29T03:53:29.518Z,99446.47
2023-03-29T03:55:56.120Z,99439.75
2023-03-29T03:58:23.185Z,99441.00
2023-03-29T04:00:54.293Z,99451.16
2023-03-29T04:03:20.983Z,99456.84
2023-03-29T04:05:47.912Z,99450.72
2023-03-29T04:08:15.130Z,99457.69
2023-03-29T04:10:41.897Z,99453.91
2023-03-29T04:13:08.399Z,99458.78
2023-03-29T04:15:35.607Z,99454.19
2023-03-29T04:18:02.229Z,99452.25
2023-03-29T04:20:29.040Z,99465.31
2023-03-29T04:22:55.696Z,99458.25
2023-03-29T04:25:22.220Z,99466.03
2023-03-29T04:27:49.707Z,99461.72
2023-03-29T04:30:16.481Z,99457.25
2023-03-29T04:32:43.236Z,99452.09
2023-03-29T04:35:09.768Z,99456.25
2023-03-29T04:37:36.262Z,99450.84
2023-03-29T04:40:03.130Z,99455.31
2023-03-29T04:42:29.751Z,99455.31
2023-03-29T04:44:56.306Z,99454.84
2023-03-29T04:47:22.973Z,99456.13
2023-03-29T04:49:49.443Z,99454.34
2023-03-29T04:52:15.895Z,99455.31
2023-03-29T04:54:42.335Z,99461.06
2023-03-29T04:57:09.075Z,99462.06
2023-03-29T04:59:35.535Z,99467.19
2023-03-29T05:02:02.304Z,99450.91
2023-03-29T05:04:29.573Z,99460.34
2023-03-29T05:06:56.327Z,99463.72
2023-03-29T05:09:24.068Z,99456.59
2023-03-29T05:11:50.479Z,99451.56
2023-03-29T05:14:17.298Z,99445.28
2023-03-29T05:16:44.305Z,99447.50
2023-03-29T05:19:11.799Z,99458.91
2023-03-29T05:21:38.321Z,99457.97
2023-03-29T05:24:05.135Z,99460.16
2023-03-29T05:26:31.986Z,99455.97
2023-03-29T05:28:58.839Z,99467.09
2023-03-29T05:31:25.230Z,99468.50
2023-03-29T05:33:51.620Z,99469.16
2023-03-29T05:36:19.460Z,99476.53
2023-03-29T05:38:46.458Z,99470.66
2023-03-29T05:41:15.209Z,99471.19
2023-03-29T05:43:42.194Z,99474.53
2023-03-29T05:46:09.014Z,99472.19
2023-03-29T05:48:36.026Z,99476.88
2023-03-29T05:51:02.603Z,99473.81
2023-03-29T05:53:29.348Z,99474.81
2023-03-29T05:55:56.045Z,99471.59
2023-03-29T05:58:23.061Z,99471.53
2023-03-29T06:00:50.674Z,99472.94
2023-03-29T06:03:22.418Z,99468.59
2023-03-29T06:05:55.146Z,99468.59
2023-03-29T06:08:21.734Z,99461.81
2023-03-29T06:10:48.135Z,99471.09
2023-03-29T06:13:14.828Z,99473.00
2023-03-29T06:15:41.338Z,99474.00
2023-03-29T06:18:08.286Z,99470.75
2023-03-29T06:20:34.775Z,99476.56
2023-03-29T06:23:01.265Z,99479.22
2023-03-29T06:25:27.737Z,99475.28
2023-03-29T06:27:54.442Z,99468.03
2023-03-29T06:30:21.027Z,99466.06
2023-03-29T06:32:47.530Z,99477.97
2023-03-29T06:35:14.005Z,99480.44
2023-03-29T06:37:40.369Z,99486.31
2023-03-29T06:40:07.670Z,99481.97
2023-03-29T06:42:34.148Z,99491.81
2023-03-29T06:45:00.833Z,99495.75
2023-03-29T06:47:27.518Z,99504.25
2023-03-29T06:49:54.035Z,99502.28
2023-03-29T06:52:20.406Z,99498.47
2023-03-29T06:54:48.202Z,99504.28
2023-03-29T06:57:14.601Z,99499.38
2023-03-29T06:59:41.131Z,99501.84
2023-03-29T07:02:09.667Z,99484.13
2023-03-29T07:04:36.092Z,99484.63
2023-03-29T07:07:02.520Z,99481.16
2023-03-29T07:09:30.573Z,99475.41
2023-03-29T07:12:00.398Z,99467.31
2023-03-29T07:14:28.133Z,99466.72
2023-03-29T07:16:55.693Z,99467.94
2023-03-29T07:19:22.827Z,99464.81
2023-03-29T07:21:49.533Z,99453.56
2023-03-29T07:24:16.152Z,99446.44
2023-03-29T07:26:52.389Z,99434.63
2023-03-29T07:29:27.572Z,99404.38
2023-03-29T07:31:54.053Z,99389.41
2023-03-29T07:34:20.583Z,99400.53
2023-03-29T07:36:47.093Z,99396.56
2023-03-29T07:39:13.671Z,99387.09
2023-03-29T07:41:40.386Z,99380.13
2023-03-29T07:44:06.846Z,99370.78
2023-03-29T07:46:33.358Z,99379.25
2023-03-29T07:48:59.767Z,99375.94
2023-03-29T07:51:26.271Z,99354.34
2023-03-29T07:53:52.784Z,99337.22
2023-03-29T07:56:19.541Z,99330.38
2023-03-29T07:58:46.233Z,99339.31
2023-03-29T08:01:15.370Z,99330.78
2023-03-29T08:03:43.846Z,99286.31
2023-03-29T08:06:10.463Z,99284.31
2023-03-29T08:08:36.912Z,99278.31
2023-03-29T08:11:03.716Z,99279.31
2023-03-29T08:13:30.545Z,99284.59
2023-03-29T08:15:57.045Z,99279.22
2023-03-29T08:18:23.746Z,99250.31
2023-03-29T08:20:50.363Z,99212.41
2023-03-29T08:23:17.001Z,99191.50
2023-03-29T08:25:45.606Z,99196.88
2023-03-29T08:28:12.134Z,99160.28
2023-03-29T08:30:38.581Z,99143.56
2023-03-29T08:33:05.251Z,99149.56
2023-03-29T08:35:31.833Z,99131.31
2023-03-29T08:37:59.023Z,99103.84
2023-03-29T08:40:28.132Z,99083.50
2023-03-29T08:43:00.860Z,99080.47
2023-03-29T08:45:35.179Z,99094.53
2023-03-29T08:48:25.613Z,99109.34
2023-03-29T08:50:55.888Z,99135.09
2023-03-29T08:53:25.378Z,99122.88
2023-03-29T08:55:53.600Z,99111.84
2023-03-29T08:58:31.352Z,99104.59
2023-03-29T09:01:00.337Z,99112.75
2023-03-29T09:03:34.369Z,99081.66
2023-03-29T09:06:10.130Z,99066.78
2023-03-29T09:08:46.411Z,99042.13
2023-03-29T09:11:34.949Z,99051.69
2023-03-29T09:14:26.803Z,99036.88
2023-03-29T09:17:33.769Z,99025.59
2023-03-29T09:20:13.019Z,99027.50
2023-03-29T09:22:39.960Z,99023.53
2023-03-29T09:25:31.855Z,99018.81
2023-03-29T09:28:13.406Z,99006.09
2023-03-29T09:30:41.972Z,99011.06
2023-03-29T09:33:17.432Z,98990.38
2023-03-29T09:35:52.574Z,98978.69
2023-03-29T09:38:21.900Z,98973.56
2023-03-29T09:40:54.178Z,98982.28
2023-03-29T09:43:33.440Z,98970.00
2023-03-29T09:46:04.443Z,98955.16
2023-03-29T09:48:36.293Z,98950.69
2023-03-29T09:51:07.143Z,98955.28
2023-03-29T09:53:33.675Z,98948.72
2023-03-29T09:56:01.795Z,98942.59
2023-03-29T09:58:30.157Z,98941.31
2023-03-29T10:01:01.376Z,98941.78
2023-03-29T10:03:30.282Z,98940.09
2023-03-29T10:06:00.003Z,98937.44
2023-03-29T10:08:29.408Z,98935.56
2023-03-29T10:11:01.483Z,98933.97
2023-03-29T10:13:31.000Z,98932.34
2023-03-29T10:16:08.907Z,98936.44
2023-03-29T10:18:43.034Z,98942.34
2023-03-29T10:21:13.655Z,98940.03
2023-03-29T10:23:40.345Z,98933.03
2023-03-29T10:26:17.745Z,98937.28
2023-03-29T10:28:44.513Z,98937.63
2023-03-29T10:31:18.497Z,98944.41
2023-03-29T10:33:51.775Z,98945.97
2023-03-29T10:36:18.447Z,98942.56
2023-03-29T10:38:45.067Z,98942.75
2023-03-29T10:41:12.906Z,98928.63
2023-03-29T10:43:44.665Z,98930.03
2023-03-29T10:46:18.452Z,98925.13
2023-03-29T10:48:50.438Z,98930.50
2023-03-29T10:51:19.325Z,98931.63
2023-03-29T10:53:45.794Z,98924.13
2023-03-29T10:56:36.997Z,98918.81
2023-03-29T10:59:23.044Z,98921.81
2023-03-29T11:02:16.096Z,98919.72
2023-03-29T11:05:06.354Z,98920.53
2023-03-29T11:07:37.523Z,98911.72
2023-03-29T11:10:42.160Z,98912.81
2023-03-29T11:13:26.758Z,98911.72
2023-03-29T11:16:01.997Z,98910.34
2023-03-29T11:18:34.270Z,98911.66
2023-03-29T11:21:26.007Z,98899.81
2023-03-29T11:24:38.710Z,98893.69
2023-03-29T11:27:31.581Z,98892.13
2023-03-29T11:30:07.932Z,98895.97
2023-03-29T11:32:47.929Z,98892.56
2023-03-29T11:35:39.969Z,98886.81
2023-03-29T11:38:09.034Z,98883.38
2023-03-29T11:40:41.465Z,98871.09
2023-03-29T11:43:30.599Z,98869.59
2023-03-29T11:46:02.700Z,98879.94
2023-03-29T11:48:35.500Z,98876.44
2023-03-29T11:51:09.829Z,98872.56
2023-03-29T11:53:50.149Z,98870.97
2023-03-29T11:56:24.781Z,98864.72
2023-03-29T11:58:57.829Z,98849.50
2023-03-29T12:01:45.395Z,98860.50
2023-03-29T12:04:25.884Z,98858.47
2023-03-29T12:07:20.041Z,98854.53
2023-03-29T12:10:06.993Z,98855.59
2023-03-29T12:12:50.712Z,98844.25
2023-03-29T12:15:20.765Z,98846.81
2023-03-29T12:18:00.927Z,98823.16
2023-03-29T12:20:33.664Z,98817.88
2023-03-29T12:23:00.356Z,98822.66
2023-03-29T12:25:59.882Z,98837.22
2023-03-29T12:28:44.314Z,98815.50
2023-03-29T12:31:32.869Z,98825.59
2023-03-29T12:34:23.212Z,98821.38
2023-03-29T12:37:21.789Z,98829.38
2023-03-29T12:39:49.686Z,98823.03
2023-03-29T12:42:19.504Z,98826.03
2023-03-29T12:44:59.817Z,98831.81
2023-03-29T12:47:31.803Z,98829.13
2023-03-29T12:50:00.356Z,98834.97
2023-03-29T12:52:36.126Z,98823.97
2023-03-29T12:55:17.485Z,98828.97
2023-03-29T12:57:57.907Z,98832.03
2023-03-29T13:00:32.156Z,98840.63
2023-03-29T13:03:03.217Z,98841.19
2023-03-29T13:05:33.855Z,98843.91
2023-03-29T13:08:10.781Z,98836.84
2023-03-29T13:10:41.617Z,98839.56
2023-03-29T13:13:30.969Z,98837.13
2023-03-29T13:16:10.662Z,98834.03
2023-03-29T13:18:55.755Z,98837.44
2023-03-29T13:21:22.214Z,98840.94
2023-03-29T13:24:02.553Z,98844.63
2023-03-29T13:26:55.692Z,98845.97
2023-03-29T13:29:50.219Z,98842.03
2023-03-29T13:32:39.009Z,98843.75
2023-03-29T13:35:43.421Z,98844.91
2023-03-29T13:38:26.510Z,98839.09
2023-03-29T13:40:53.382Z,98848.22
2023-03-29T13:43:31.534Z,98853.69
2023-03-29T13:45:58.434Z,98849.00
2023-03-29T13:48:35.033Z,98852.72
2023-03-29T13:51:05.074Z,98829.00
2023-03-29T13:53:38.164Z,98824.34
2023-03-29T13:56:08.194Z,98832.34
2023-03-29T13:59:02.132Z,98839.44
2023-03-29T14:01:31.614Z,98834.50
2023-03-29T14:03:59.635Z,98821.25
2023-03-29T14:06:35.712Z,98833.22
2023-03-29T14:09:09.064Z,98832.78
2023-03-29T14:11:36.625Z,98832.53
2023-03-29T14:14:04.862Z,98823.94
2023-03-29T14:16:35.534Z,98837.88
2023-03-29T14:19:14.211Z,98828.88
2023-03-29T14:21:42.407Z,98821.66
2023-03-29T14:24:12.496Z,98832.25
2023-03-29T14:26:44.268Z,98849.06
2023-03-29T14:29:11.391Z,98844.72
2023-03-29T14:31:40.677Z,98837.19
2023-03-29T14:34:12.739Z,98845.75
2023-03-29T14:36:39.724Z,98837.44
2023-03-29T14:39:10.764Z,98845.25
2023-03-29T14:41:39.386Z,98841.63
2023-03-29T14:44:07.375Z,98835.66
2023-03-29T14:46:34.946Z,98833.28
2023-03-29T14:49:01.823Z,98823.09
2023-03-29T14:51:28.883Z,98836.22
2023-03-29T14:53:57.393Z,98830.88
2023-03-29T14:56:24.455Z,98847.06
2023-03-29T14:58:55.720Z,98847.06
2023-03-29T15:01:25.119Z,98829.47
2023-03-29T15:04:03.026Z,98834.09
2023-03-29T15:06:32.526Z,98820.72
2023-03-29T15:09:05.266Z,98810.66
2023-03-29T15:11:34.382Z,98807.31
2023-03-29T15:14:09.418Z,98811.69
2023-03-29T15:16:42.376Z,98793.28
2023-03-29T15:19:17.042Z,98782.97
2023-03-29T15:21:45.190Z,98770.78
2023-03-29T15:24:22.918Z,98766.06
2023-03-29T15:27:04.464Z,98755.84
2023-03-29T15:29:37.201Z,98752.91
2023-03-29T15:32:03.597Z,98753.81
2023-03-29T15:34:32.997Z,98771.09
2023-03-29T15:37:01.009Z,98766.22
2023-03-29T15:39:29.537Z,98755.19
2023-03-29T15:41:58.038Z,98735.44
2023-03-29T15:44:32.075Z,98731.38
2023-03-29T15:46:59.014Z,98741.34
2023-03-29T15:49:26.221Z,98747.63
2023-03-29T15:51:53.895Z,98741.59
2023-03-29T15:54:23.779Z,98738.66
2023-03-29T15:57:11.338Z,98723.97
2023-03-29T15:59:37.962Z,98732.09
2023-03-29T16:02:05.263Z,98719.63
2023-03-29T16:04:31.667Z,98722.91
2023-03-29T16:06:58.237Z,98731.47
2023-03-29T16:09:24.958Z,98732.09
2023-03-29T16:11:51.754Z,98736.22
2023-03-29T16:14:29.660Z,98737.91
2023-03-29T16:16:58.271Z,98740.06
2023-03-29T16:19:26.347Z,98745.53
2023-03-29T16:21:54.207Z,98758.28
2023-03-29T16:24:27.098Z,98756.13
2023-03-29T16:26:55.984Z,98768.81
2023-03-29T16:29:24.146Z,98774.59
2023-03-29T16:31:51.426Z,98772.53
2023-03-29T16:34:18.721Z,98766.72
2023-03-29T16:36:49.299Z,98770.66
2023-03-29T16:39:19.821Z,98775.38
2023-03-29T16:41:46.867Z,98775.16
2023-03-29T16:44:16.500Z,98760.69
2023-03-29T16:46:44.804Z,98759.06
2023-03-29T16:49:15.481Z,98762.38
2023-03-29T16:51:41.932Z,98754.38
2023-03-29T16:54:08.565Z,98752.75
2023-03-29T16:56:35.142Z,98762.78
2023-03-29T16:59:04.090Z,98778.53
2023-03-29T17:01:30.664Z,98779.97
2023-03-29T17:03:57.452Z,98768.44
2023-03-29T17:06:24.126Z,98761.88
2023-03-29T17:08:50.742Z,98749.75
2023-03-29T17:11:17.658Z,98768.81
2023-03-29T17:13:44.180Z,98777.50
2023-03-29T17:16:10.773Z,98771.75
2023-03-29T17:18:37.256Z,98772.78
2023-03-29T17:21:04.009Z,98769.28
2023-03-29T17:23:30.462Z,98777.97
2023-03-29T17:25:57.697Z,98779.44
2023-03-29T17:28:24.250Z,98791.63
2023-03-29T17:30:51.338Z,98809.56
2023-03-29T17:33:19.196Z,98826.06
2023-03-29T17:35:47.979Z,98829.59
2023-03-29T17:38:14.912Z,98833.75
2023-03-29T17:40:41.678Z,98828.38
2023-03-29T17:43:08.334Z,98818.69
2023-03-29T17:45:34.762Z,98819.31
2023-03-29T17:48:05.608Z,98819.16
2023-03-29T17:50:34.022Z,98831.31
2023-03-29T17:53:00.893Z,98807.16
2023-03-29T17:55:27.600Z,98809.66
2023-03-29T17:57:54.063Z,98770.66
2023-03-29T18:00:21.087Z,98751.72
2023-03-29T18:02:47.688Z,98749.63
2023-03-29T18:05:14.596Z,98759.56
2023-03-29T18:07:41.055Z,98798.56
2023-03-29T18:10:07.831Z,98811.97
2023-03-29T18:12:34.399Z,98798.78
2023-03-29T18:15:00.787Z,98804.16
2023-03-29T18:17:27.434Z,98819.63
2023-03-29T18:19:54.198Z,98828.09
2023-03-29T18:22:21.295Z,98843.38
2023-03-29T18:24:47.711Z,98832.66
2023-03-29T18:27:19.587Z,98846.22
2023-03-29T18:29:46.262Z,98854.25
2023-03-29T18:32:15.460Z,98862.72
2023-03-29T18:34:42.382Z,98851.19
2023-03-29T18:37:09.416Z,98873.00
2023-03-29T18:39:36.630Z,98869.28
2023-03-29T18:42:03.195Z,98887.41
2023-03-29T18:44:29.697Z,98891.50
2023-03-29T18:46:56.228Z,98895.81
2023-03-29T18:49:22.760Z,98908.78
2023-03-29T18:51:49.457Z,98907.75
2023-03-29T18:54:16.067Z,98921.13
2023-03-29T18:56:42.539Z,98924.59
2023-03-29T18:59:09.460Z,98928.50
2023-03-29T19:01:36.129Z,98923.34
2023-03-29T19:04:02.948Z,98947.19
2023-03-29T19:06:29.507Z,98958.88
2023-03-29T19:08:56.033Z,98966.25
2023-03-29T19:11:22.619Z,98966.66
2023-03-29T19:13:49.119Z,98957.16
2023-03-29T19:16:15.918Z,98964.94
2023-03-29T19:18:42.582Z,98984.69
2023-03-29T19:21:09.496Z,98967.84
2023-03-29T19:23:36.294Z,98967.63
2023-03-29T19:26:05.027Z,98965.97
2023-03-29T19:28:33.380Z,98973.59
2023-03-29T19:31:03.468Z,98970.28
2023-03-29T19:33:30.617Z,98990.44
2023-03-29T19:35:57.223Z,98995.78
2023-03-29T19:38:24.075Z,98992.28
2023-03-29T19:40:51.836Z,99000.28
2023-03-29T19:43:19.284Z,99007.00
2023-03-29T19:45:47.870Z,99020.16
2023-03-29T19:48:21.904Z,99050.72
2023-03-29T19:50:50.290Z,99057.03
2023-03-29T19:53:16.923Z,99069.34
2023-03-29T19:55:43.904Z,99074.03
2023-03-29T19:58:10.352Z,99085.50
2023-03-29T20:00:36.945Z,99095.75
2023-03-29T20:03:03.417Z,99102.66
2023-03-29T20:05:30.200Z,99094.59
2023-03-29T20:07:56.854Z,99103.13
2023-03-29T20:10:23.570Z,99108.84
2023-03-29T20:12:50.292Z,99114.56
2023-03-29T20:15:16.906Z,99118.66
2023-03-29T20:17:43.451Z,99113.06
2023-03-29T20:20:10.431Z,99114.44
2023-03-29T20:22:37.798Z,99111.91
2023-03-29T20:25:05.155Z,99118.59
2023-03-29T20:27:31.856Z,99110.16
2023-03-29T20:29:58.197Z,99103.97
2023-03-29T20:32:24.936Z,99107.69
2023-03-29T20:34:51.784Z,99107.69
2023-03-29T20:37:18.427Z,99112.00
2023-03-29T20:39:44.850Z,99103.72
2023-03-29T20:42:11.258Z,99109.41
2023-03-29T20:44:37.621Z,99106.75
2023-03-29T20:47:04.187Z,99102.06
2023-03-29T20:49:35.554Z,99093.03
2023-03-29T20:52:02.271Z,99098.19
2023-03-29T20:54:28.798Z,99088.50
2023-03-29T20:56:55.254Z,99084.41
2023-03-29T20:59:22.111Z,99091.75
2023-03-29T21:01:50.853Z,99098.94
2023-03-29T21:04:18.712Z,99092.50
2023-03-29T21:06:45.923Z,99087.53
2023-03-29T21:09:13.170Z,99082.56
2023-03-29T21:11:39.556Z,99078.81
2023-03-29T21:14:06.204Z,99079.47
2023-03-29T21:16:32.629Z,99073.66
2023-03-29T21:18:59.052Z,99084.34
2023-03-29T21:21:25.485Z,99080.00
2023-03-29T21:23:52.205Z,99083.41
2023-03-29T21:26:19.169Z,99089.41
2023-03-29T21:28:45.743Z,99084.50
2023-03-29T21:31:12.287Z,99074.66
2023-03-29T21:33:38.758Z,99063.75
2023-03-29T21:36:05.465Z,99073.09
2023-03-29T21:38:31.927Z,99070.44
2023-03-29T21:40:59.781Z,99052.78
2023-03-29T21:43:26.213Z,99056.09
2023-03-29T21:45:52.661Z,99051.13
2023-03-29T21:48:19.485Z,99046.19
2023-03-29T21:50:49.383Z,99054.34
2023-03-29T21:53:16.154Z,99053.28
2023-03-29T21:55:42.563Z,99054.47
2023-03-29T21:58:09.668Z,99043.97
2023-03-29T22:00:36.196Z,99046.00
2023-03-29T22:03:02.692Z,99040.84
2023-03-29T22:05:29.249Z,99043.06
2023-03-29T22:07:55.637Z,99052.09
2023-03-29T22:10:21.997Z,99053.44
2023-03-29T22:12:49.411Z,99051.81
2023-03-29T22:15:15.847Z,99053.44
2023-03-29T22:17:42.505Z,99063.50
2023-03-29T22:20:10.845Z,99057.50
2023-03-29T22:22:37.356Z,99054.19
2023-03-29T22:25:04.020Z,99053.56
2023-03-29T22:27:30.535Z,99056.22
2023-03-29T22:29:56.939Z,99053.56
2023-03-29T22:32:23.574Z,99051.88
2023-03-29T22:34:50.425Z,99047.78
2023-03-29T22:37:16.919Z,99052.63
2023-03-29T22:39:43.727Z,99054.66
2023-03-29T22:42:10.130Z,99052.00
2023-03-29T22:44:36.611Z,99052.16
2023-03-29T22:47:04.182Z,99041.50
2023-03-29T22:49:30.709Z,99046.38
2023-03-29T22:51:57.095Z,99048.38
2023-03-29T22:54:23.746Z,99056.75
2023-03-29T22:56:50.296Z,99053.09
2023-03-29T22:59:17.466Z,99051.59
2023-03-29T23:01:43.980Z,99050.31
2023-03-29T23:04:10.631Z,99047.66
2023-03-29T23:06:37.263Z,99043.97
2023-03-29T23:09:04.097Z,99047.47
2023-03-29T23:11:30.565Z,99051.78
2023-03-29T23:13:56.984Z,99043.78
2023-03-29T23:16:23.505Z,99048.28
2023-03-29T23:18:50.409Z,99045.63
2023-03-29T23:21:16.896Z,99033.47
2023-03-29T23:23:43.613Z,99041.69
2023-03-29T23:26:10.336Z,99039.00
2023-03-29T23:28:36.900Z,99036.34
2023-03-29T23:31:07.167Z,99044.50
2023-03-29T23:33:35.788Z,99045.00
2023-03-29T23:36:06.229Z,99042.84
2023-03-29T23:38:34.340Z,99047.81
2023-03-29T23:41:02.862Z,99047.38
2023-03-29T23:43:32.201Z,99038.34
2023-03-29T23:46:07.418Z,99045.53
2023-03-29T23:48:34.500Z,99037.72
2023-03-29T23:51:02.406Z,99041.03
2023-03-29T23:53:30.258Z,99044.16
2023-03-29T23:56:01.380Z,99047.47
2023-03-29T23:58:29.411Z,99043.97
